Time;durP1;ratioP1;P1;durP2;ratioP2;P2;SDS_P1;SDS_P2;PMS_P1;PMS_P2;Temp;Humidity;BMP_temperature;BMP_pressure;BME280_temperature;BME280_humidity;BME280_pressure;Samples;Min_cycle;Max_cycle;Signal;HPM_P1;HPM_P2
2023/04/09 00:00:37;;;;;;;62.42;39.70;;;8.90;99.90;;;;;;5051563;28;20092;-87
2023/04/09 00:03:02;;;;;;;65.00;39.80;;;9.60;99.90;;;;;;5050281;28;20118;-87
2023/04/09 00:05:28;;;;;;;64.43;37.85;;;8.90;99.90;;;;;;5050469;28;20487;-85
2023/04/09 00:07:54;;;;;;;67.35;39.03;;;9.40;99.90;;;;;;5051681;28;20051;-86
2023/04/09 00:10:20;;;;;;;67.15;38.90;;;8.80;99.90;;;;;;5050330;28;20045;-87
2023/04/09 00:12:46;;;;;;;66.82;38.72;;;8.80;99.90;;;;;;5051392;28;20527;-80
2023/04/09 00:15:11;;;;;;;69.47;39.15;;;9.30;99.90;;;;;;5050024;28;20057;-75
2023/04/09 00:17:37;;;;;;;72.72;39.92;;;8.80;99.90;;;;;;5052622;28;20091;-77
2023/04/09 00:20:03;;;;;;;70.00;38.38;;;8.70;99.90;;;;;;5051483;28;20575;-77
2023/04/09 00:22:29;;;;;;;66.30;38.92;;;8.70;99.90;;;;;;5051142;28;20053;-76
2023/04/09 00:24:56;;;;;;;70.40;40.55;;;8.70;99.90;;;;;;5051087;28;20529;-75
2023/04/09 00:27:22;;;;;;;72.22;40.97;;;8.70;99.90;;;;;;5051097;28;20060;-76
2023/04/09 00:29:47;;;;;;;66.25;38.22;;;8.80;99.90;;;;;;5050910;28;20041;-76
2023/04/09 00:32:13;;;;;;;67.32;38.72;;;8.70;99.90;;;;;;5049468;28;20040;-79
2023/04/09 00:34:39;;;;;;;69.68;41.10;;;9.30;99.90;;;;;;5050970;28;20068;-77
2023/04/09 00:37:05;;;;;;;74.57;40.13;;;9.30;99.90;;;;;;5051103;28;20121;-75
2023/04/09 00:39:30;;;;;;;72.15;40.38;;;8.70;99.90;;;;;;5050557;28;20048;-76
2023/04/09 00:41:58;;;;;;;73.88;40.45;;;9.00;99.90;;;;;;5050996;28;20064;-78
2023/04/09 00:44:24;;;;;;;77.15;41.85;;;8.70;99.90;;;;;;5050578;28;20051;-76
2023/04/09 00:46:50;;;;;;;72.43;39.58;;;9.00;99.90;;;;;;5049236;28;20052;-75
2023/04/09 00:49:16;;;;;;;77.97;41.50;;;8.60;99.90;;;;;;5049325;28;20053;-78
2023/04/09 00:51:45;;;;;;;72.68;42.75;;;8.60;99.90;;;;;;5049490;28;20068;-77
2023/04/09 00:54:11;;;;;;;78.82;40.70;;;8.60;99.90;;;;;;5050706;28;20067;-78
2023/04/09 00:56:37;;;;;;;68.45;38.75;;;8.50;99.90;;;;;;5050887;28;20045;-77
2023/04/09 00:59:03;;;;;;;68.13;39.22;;;8.50;99.90;;;;;;5050566;28;20605;-77
2023/04/09 01:01:29;;;;;;;65.22;39.05;;;8.50;99.90;;;;;;5050749;28;20429;-76
2023/04/09 01:03:55;;;;;;;68.10;38.40;;;8.50;99.90;;;;;;5053317;28;20119;-75
2023/04/09 01:06:52;;;;;;;65.45;37.40;;;8.60;99.90;;;;;;5070632;28;20088;-77
2023/04/09 01:09:29;;;;;;;65.15;36.85;;;8.80;99.90;;;;;;5070320;28;20058;-77
2023/04/09 01:12:14;;;;;;;67.72;37.70;;;9.00;99.90;;;;;;5070311;28;20044;-76
2023/04/09 01:15:20;;;;;;;60.90;36.53;;;8.70;99.90;;;;;;5070773;28;20045;-76
2023/04/09 01:17:53;;;;;;;69.70;38.92;;;8.40;99.90;;;;;;4977192;28;20058;-77
2023/04/09 01:20:27;;;;;;;67.38;38.95;;;8.30;99.90;;;;;;4970068;28;20078;-79
2023/04/09 01:23:28;;;;;;;68.55;37.58;;;8.30;99.90;;;;;;4969805;28;20062;-77
2023/04/09 01:26:03;;;;;;;64.30;36.53;;;8.30;99.90;;;;;;4955394;28;20078;-76
2023/04/09 01:28:34;;;;;;;67.50;35.83;;;8.80;99.90;;;;;;4970772;28;20108;-80
2023/04/09 01:31:05;;;;;;;65.72;37.35;;;8.30;99.90;;;;;;4954008;28;20106;-77
2023/04/09 01:33:32;;;;;;;64.53;36.83;;;8.30;99.90;;;;;;4953584;28;20047;-79
2023/04/09 01:35:59;;;;;;;63.90;36.33;;;9.00;99.90;;;;;;4953033;28;20137;-77
2023/04/09 01:38:26;;;;;;;67.55;36.40;;;8.60;99.90;;;;;;4952576;28;20057;-79
2023/04/09 01:40:55;;;;;;;65.03;36.80;;;8.30;99.90;;;;;;4968600;28;20059;-76
2023/04/09 01:43:22;;;;;;;55.92;34.00;;;8.30;99.90;;;;;;4968697;28;20061;-78
2023/04/09 01:45:49;;;;;;;67.30;34.25;;;8.60;99.90;;;;;;4968237;28;20165;-75
2023/04/09 01:48:15;;;;;;;59.70;34.22;;;8.70;99.90;;;;;;4968460;28;20070;-76
2023/04/09 01:50:42;;;;;;;56.67;33.90;;;8.30;99.90;;;;;;4969719;28;20066;-80
2023/04/09 01:53:07;;;;;;;60.03;34.22;;;8.20;99.90;;;;;;4973592;28;20078;-83
2023/04/09 01:55:33;;;;;;;57.25;34.28;;;8.30;99.90;;;;;;5049874;28;20100;-79
2023/04/09 01:57:59;;;;;;;67.55;34.50;;;8.20;99.90;;;;;;5049951;28;20056;-84
2023/04/09 02:00:46;;;;;;;61.50;35.38;;;8.20;99.90;;;;;;5049429;28;20135;-82
2023/04/09 02:03:20;;;;;;;66.78;35.47;;;8.80;99.90;;;;;;5048960;28;20529;-78
2023/04/09 02:05:54;;;;;;;50.13;27.67;;;8.10;99.90;;;;;;5050300;28;20059;-78
2023/04/09 02:08:20;;;;;;;53.38;29.88;;;8.30;99.90;;;;;;5049632;28;20091;-80
2023/04/09 02:10:54;;;;;;;45.10;25.95;;;8.30;99.90;;;;;;5053868;28;20052;-81
2023/04/09 02:13:20;;;;;;;40.80;24.38;;;8.30;99.90;;;;;;5065100;28;20055;-78
2023/04/09 02:15:47;;;;;;;42.95;23.88;;;8.50;99.90;;;;;;5068035;28;20045;-83
2023/04/09 02:18:22;;;;;;;45.20;24.42;;;8.20;99.90;;;;;;5058981;28;20487;-85
2023/04/09 02:20:48;;;;;;;39.40;23.40;;;8.30;99.90;;;;;;5070086;28;20102;-87
2023/04/09 02:23:15;;;;;;;39.88;24.48;;;8.20;99.90;;;;;;5070532;28;20036;-90
2023/04/09 02:25:41;;;;;;;43.65;25.02;;;8.30;99.90;;;;;;5066287;28;20047;-77
2023/04/09 02:28:07;;;;;;;39.33;23.55;;;8.50;99.90;;;;;;5051609;28;20057;-81
2023/04/09 02:30:32;;;;;;;41.25;24.02;;;8.10;99.90;;;;;;5056543;28;20043;-88
2023/04/09 02:32:58;;;;;;;42.88;24.85;;;8.70;99.90;;;;;;5067815;28;20411;-84
2023/04/09 02:35:24;;;;;;;41.42;24.60;;;8.10;99.90;;;;;;5070665;28;20047;-88
2023/04/09 02:37:49;;;;;;;48.08;26.38;;;8.20;99.90;;;;;;5069760;28;20076;-84
2023/04/09 02:40:15;;;;;;;41.80;25.73;;;8.10;99.90;;;;;;5067578;28;20574;-88
2023/04/09 02:42:40;;;;;;;42.85;25.45;;;8.10;99.90;;;;;;5061579;28;20052;-86
2023/04/09 02:45:07;;;;;;;42.42;25.00;;;8.60;99.90;;;;;;5072249;28;20036;-85
2023/04/09 02:47:32;;;;;;;41.92;24.27;;;8.00;99.90;;;;;;5068045;28;20127;-88
2023/04/09 02:49:58;;;;;;;41.75;25.23;;;8.00;99.90;;;;;;5069404;28;20131;-83
2023/04/09 02:52:24;;;;;;;45.50;24.73;;;8.00;99.90;;;;;;5067182;28;20048;-80
2023/04/09 02:54:51;;;;;;;41.05;24.10;;;8.30;99.90;;;;;;5066763;28;20056;-83
2023/04/09 02:57:17;;;;;;;41.72;24.92;;;7.90;99.90;;;;;;5050818;28;20079;-84
2023/04/09 02:59:44;;;;;;;44.35;24.92;;;8.60;99.90;;;;;;5064150;28;20117;-85
2023/04/09 03:02:10;;;;;;;43.58;26.48;;;7.90;99.90;;;;;;5058212;28;20044;-83
2023/04/09 03:04:36;;;;;;;43.72;25.40;;;7.90;99.90;;;;;;5068969;28;20407;-84
2023/04/09 03:07:02;;;;;;;45.13;25.45;;;8.40;99.90;;;;;;5069075;28;20097;-86
2023/04/09 03:09:29;;;;;;;42.65;24.75;;;7.80;99.90;;;;;;5067831;28;20628;-88
2023/04/09 03:11:56;;;;;;;49.33;25.70;;;7.80;99.90;;;;;;5050007;28;20414;-87
2023/04/09 03:14:24;;;;;;;44.58;24.95;;;7.80;99.90;;;;;;5053460;28;20490;-87
2023/04/09 03:16:50;;;;;;;42.05;23.45;;;7.80;99.90;;;;;;5048673;28;20049;-86
2023/04/09 03:19:15;;;;;;;39.40;24.60;;;7.80;99.90;;;;;;5050880;28;20048;-85
2023/04/09 03:21:41;;;;;;;47.97;25.25;;;7.80;99.90;;;;;;5052853;28;20061;-77
2023/04/09 03:24:07;;;;;;;44.08;24.02;;;8.10;99.90;;;;;;5052658;28;20044;-76
2023/04/09 03:26:36;;;;;;;44.17;24.73;;;7.70;99.90;;;;;;5055073;28;20032;-76
2023/04/09 03:29:02;;;;;;;44.55;24.55;;;7.70;99.90;;;;;;5059747;28;20052;-77
2023/04/09 03:31:28;;;;;;;45.78;24.10;;;7.70;99.90;;;;;;5051095;28;20064;-76
2023/04/09 03:33:53;;;;;;;41.38;25.08;;;7.70;99.90;;;;;;5071271;28;20044;-80
2023/04/09 03:36:19;;;;;;;40.60;24.52;;;8.00;99.90;;;;;;5055877;28;20037;-76
2023/04/09 03:38:45;;;;;;;38.67;24.27;;;7.70;99.90;;;;;;5052183;28;20368;-76
2023/04/09 03:41:10;;;;;;;43.83;25.02;;;7.70;99.90;;;;;;5063189;28;20083;-75
2023/04/09 03:43:36;;;;;;;43.45;25.70;;;7.60;99.90;;;;;;5060660;28;20057;-76
2023/04/09 03:46:11;;;;;;;38.47;24.40;;;7.60;99.90;;;;;;5050850;28;20053;-76
2023/04/09 03:48:36;;;;;;;42.40;24.20;;;8.30;99.90;;;;;;5052050;28;20341;-76
2023/04/09 03:51:02;;;;;;;37.80;24.40;;;7.60;99.90;;;;;;5050705;28;20049;-76
2023/04/09 03:53:28;;;;;;;41.65;24.10;;;7.60;99.90;;;;;;5034175;28;20550;-77
2023/04/09 03:55:53;;;;;;;41.05;24.55;;;7.60;99.90;;;;;;5051601;28;20842;-76
2023/04/09 03:58:19;;;;;;;43.47;24.23;;;7.60;99.90;;;;;;5050544;28;20045;-76
2023/04/09 04:00:45;;;;;;;42.58;25.00;;;7.80;99.90;;;;;;5052225;28;20065;-76
2023/04/09 04:03:13;;;;;;;44.45;25.33;;;7.70;99.90;;;;;;5071777;28;20092;-76
2023/04/09 04:05:39;;;;;;;40.33;25.02;;;7.60;99.90;;;;;;5069526;28;20526;-75
2023/04/09 04:08:04;;;;;;;39.17;24.20;;;7.60;99.90;;;;;;5071872;28;20147;-75
2023/04/09 04:10:30;;;;;;;43.28;25.52;;;7.50;99.90;;;;;;5065142;28;20045;-76
2023/04/09 04:12:56;;;;;;;42.88;25.95;;;7.60;99.90;;;;;;5062555;28;20075;-76
2023/04/09 04:15:21;;;;;;;46.65;26.25;;;8.10;99.90;;;;;;5051809;28;20048;-75
2023/04/09 04:17:47;;;;;;;45.97;25.35;;;7.50;99.90;;;;;;5069836;28;20048;-75
2023/04/09 04:20:12;;;;;;;42.05;25.58;;;7.50;99.90;;;;;;5071445;28;20340;-75
2023/04/09 04:22:38;;;;;;;43.30;24.73;;;7.50;99.90;;;;;;5070038;28;20047;-75
2023/04/09 04:25:04;;;;;;;44.75;26.33;;;7.60;99.90;;;;;;5069761;28;20101;-76
2023/04/09 04:27:30;;;;;;;43.90;25.63;;;7.50;99.90;;;;;;5071193;28;20460;-76
2023/04/09 04:29:57;;;;;;;48.42;26.15;;;7.50;99.90;;;;;;5069428;28;20460;-81
2023/04/09 04:32:23;;;;;;;42.60;25.55;;;7.50;99.90;;;;;;5069172;28;20163;-75
2023/04/09 04:34:49;;;;;;;48.03;25.88;;;7.50;99.90;;;;;;5071106;28;20126;-76
2023/04/09 04:37:15;;;;;;;43.80;25.58;;;7.50;99.90;;;;;;5069208;28;20059;-76
2023/04/09 04:39:40;;;;;;;43.90;26.80;;;7.50;99.90;;;;;;5069428;28;20049;-75
2023/04/09 04:42:06;;;;;;;46.25;26.50;;;7.50;99.90;;;;;;5070431;28;20407;-75
2023/04/09 04:44:31;;;;;;;50.38;28.20;;;7.50;99.90;;;;;;5070821;28;20411;-78
2023/04/09 04:46:57;;;;;;;47.95;26.13;;;7.50;99.90;;;;;;5071002;28;20321;-75
2023/04/09 04:49:23;;;;;;;42.72;25.73;;;8.20;99.90;;;;;;5069563;28;20055;-75
2023/04/09 04:51:49;;;;;;;47.88;27.30;;;7.50;99.90;;;;;;5059067;28;20102;-76
2023/04/09 04:54:14;;;;;;;45.63;26.63;;;7.60;99.90;;;;;;5050888;28;20037;-76
2023/04/09 04:56:40;;;;;;;48.38;27.00;;;7.60;99.90;;;;;;5050900;28;20045;-76
2023/04/09 04:59:05;;;;;;;42.35;25.30;;;7.60;99.90;;;;;;5050192;28;20059;-76
2023/04/09 05:01:31;;;;;;;48.55;25.92;;;7.60;99.90;;;;;;5051265;28;20163;-75
2023/04/09 05:03:57;;;;;;;44.85;24.30;;;7.50;99.90;;;;;;5049083;28;20786;-75
2023/04/09 05:06:22;;;;;;;50.00;27.05;;;7.60;99.90;;;;;;5050252;28;20492;-76
2023/04/09 05:08:48;;;;;;;43.63;25.08;;;8.00;99.90;;;;;;5049149;28;20131;-74
2023/04/09 05:11:15;;;;;;;42.85;25.13;;;7.80;99.90;;;;;;5050287;28;20048;-77
2023/04/09 05:13:41;;;;;;;44.03;24.85;;;7.50;99.90;;;;;;5032273;28;20239;-77
2023/04/09 05:16:07;;;;;;;41.00;25.52;;;7.60;99.90;;;;;;5051098;28;20045;-76
2023/04/09 05:18:32;;;;;;;42.53;24.38;;;7.60;99.90;;;;;;5050191;28;20045;-78
2023/04/09 05:20:58;;;;;;;43.83;25.75;;;7.60;99.90;;;;;;5048576;28;20053;-76
2023/04/09 05:23:24;;;;;;;40.63;24.85;;;7.60;99.90;;;;;;5049933;28;20064;-85
2023/04/09 05:25:50;;;;;;;41.20;24.17;;;7.60;99.90;;;;;;5057118;28;20045;-82
2023/04/09 05:28:15;;;;;;;40.90;25.42;;;7.60;99.90;;;;;;5059296;28;20123;-83
2023/04/09 05:30:46;;;;;;;41.90;24.00;;;8.20;99.90;;;;;;5069715;28;20067;-84
2023/04/09 05:33:11;;;;;;;41.40;24.00;;;7.60;99.90;;;;;;5069672;28;20049;-83
2023/04/09 05:35:38;;;;;;;39.60;24.30;;;7.60;99.90;;;;;;5068612;28;20048;-83
2023/04/09 05:38:04;;;;;;;39.40;23.20;;;7.60;99.90;;;;;;5070495;28;20978;-84
2023/04/09 05:40:29;;;;;;;36.22;23.45;;;8.00;99.90;;;;;;5068066;28;20127;-84
2023/04/09 05:42:55;;;;;;;39.25;24.08;;;7.60;99.90;;;;;;5051772;28;20457;-84
2023/04/09 05:45:21;;;;;;;42.97;24.05;;;7.70;99.90;;;;;;5050101;28;20190;-88
2023/04/09 05:47:46;;;;;;;38.78;22.50;;;7.60;99.90;;;;;;5048673;28;20468;-81
2023/04/09 05:50:12;;;;;;;34.75;21.33;;;7.60;99.90;;;;;;5048202;28;20060;-84
2023/04/09 05:52:38;;;;;;;32.65;21.30;;;8.30;99.90;;;;;;5049923;28;20041;-86
2023/04/09 05:55:05;;;;;;;34.60;20.40;;;7.70;99.90;;;;;;5049742;28;20127;-88
2023/04/09 05:57:31;;;;;;;35.50;22.35;;;7.60;99.90;;;;;;5050086;28;20543;-85
2023/04/09 05:59:57;;;;;;;33.90;21.30;;;7.60;99.90;;;;;;5049497;28;20124;-85
2023/04/09 06:02:24;;;;;;;34.00;21.52;;;7.60;99.90;;;;;;5064606;28;20063;-87
2023/04/09 06:04:50;;;;;;;35.20;20.92;;;7.70;99.90;;;;;;5068419;28;20083;-82
2023/04/09 06:07:16;;;;;;;32.65;20.90;;;7.80;99.90;;;;;;5068301;28;20496;-83
2023/04/09 06:09:45;;;;;;;35.53;21.77;;;7.70;99.90;;;;;;5068890;28;20177;-86
2023/04/09 06:12:12;;;;;;;36.85;22.75;;;7.70;99.90;;;;;;5047581;28;20052;-87
2023/04/09 06:14:38;;;;;;;35.78;21.23;;;7.60;99.90;;;;;;5068827;28;20048;-82
2023/04/09 06:17:04;;;;;;;34.90;20.90;;;7.70;99.90;;;;;;5069596;28;20142;-85
2023/04/09 06:19:30;;;;;;;35.85;21.88;;;7.90;99.90;;;;;;5070303;28;20154;-84
2023/04/09 06:21:56;;;;;;;37.20;22.17;;;7.70;99.90;;;;;;5069773;28;20109;-85
2023/04/09 06:24:21;;;;;;;40.05;22.02;;;7.70;99.90;;;;;;5060517;28;20041;-87
2023/04/09 06:26:47;;;;;;;34.58;21.63;;;7.70;99.90;;;;;;5051776;28;20048;-88
2023/04/09 06:29:12;;;;;;;40.55;23.08;;;7.80;99.90;;;;;;5049966;28;20045;-87
2023/04/09 06:31:38;;;;;;;37.22;22.08;;;7.80;99.90;;;;;;5049869;28;20492;-80
2023/04/09 06:34:04;;;;;;;37.90;22.50;;;7.80;99.90;;;;;;5049168;28;20671;-81
2023/04/09 06:36:29;;;;;;;39.35;23.70;;;7.80;99.90;;;;;;5049269;28;20164;-76
2023/04/09 06:38:55;;;;;;;36.28;21.08;;;7.80;99.90;;;;;;5060150;28;20083;-75
2023/04/09 06:41:22;;;;;;;33.40;21.35;;;7.90;99.90;;;;;;5067530;28;20086;-75
2023/04/09 06:43:48;;;;;;;33.13;20.95;;;7.80;99.90;;;;;;5069424;28;20470;-76
2023/04/09 06:46:16;;;;;;;31.25;19.80;;;8.10;99.90;;;;;;5067876;28;20095;-75
2023/04/09 06:48:43;;;;;;;35.15;21.15;;;8.20;99.90;;;;;;5069587;28;20064;-75
2023/04/09 06:51:10;;;;;;;33.78;21.15;;;7.90;99.90;;;;;;5067981;28;20119;-75
2023/04/09 06:53:37;;;;;;;34.30;21.63;;;7.90;99.90;;;;;;5058509;28;20053;-75
2023/04/09 06:56:03;;;;;;;30.55;20.73;;;8.00;99.90;;;;;;5051831;28;20049;-75
2023/04/09 06:58:28;;;;;;;33.13;21.45;;;7.90;99.90;;;;;;5053016;28;20037;-75
2023/04/09 07:00:54;;;;;;;33.95;21.63;;;7.90;99.90;;;;;;5054072;28;20512;-74
2023/04/09 07:03:20;;;;;;;36.30;22.08;;;7.90;99.90;;;;;;5053605;28;20890;-75
2023/04/09 07:05:46;;;;;;;32.75;21.23;;;8.80;99.90;;;;;;5051662;28;20045;-76
2023/04/09 07:08:11;;;;;;;35.35;23.00;;;7.90;99.90;;;;;;5053534;28;20052;-75
2023/04/09 07:10:37;;;;;;;35.20;21.08;;;7.90;99.90;;;;;;5057853;28;20190;-81
2023/04/09 07:13:03;;;;;;;33.28;21.40;;;8.00;99.90;;;;;;5072255;28;20052;-75
2023/04/09 07:15:28;;;;;;;39.45;22.20;;;8.10;99.90;;;;;;5073955;28;20044;-80
2023/04/09 07:17:56;;;;;;;36.05;21.45;;;8.70;99.90;;;;;;5073751;28;20079;-74
2023/04/09 07:20:25;;;;;;;35.85;22.40;;;8.50;99.90;;;;;;5071655;28;20214;-79
2023/04/09 07:22:51;;;;;;;36.60;22.50;;;8.10;99.90;;;;;;5068071;28;20801;-75
2023/04/09 07:25:16;;;;;;;35.75;21.40;;;8.10;99.90;;;;;;5054440;28;20045;-74
2023/04/09 07:27:43;;;;;;;37.25;21.40;;;8.10;99.90;;;;;;5052155;28;20049;-75
2023/04/09 07:30:09;;;;;;;34.70;20.58;;;8.10;99.90;;;;;;5053065;28;20139;-74
2023/04/09 07:32:36;;;;;;;36.53;21.85;;;8.10;99.90;;;;;;5051506;28;20132;-75
2023/04/09 07:35:03;;;;;;;36.50;22.13;;;8.10;99.90;;;;;;5052741;28;20049;-74
2023/04/09 07:37:29;;;;;;;38.47;21.27;;;8.10;99.90;;;;;;5051720;28;20041;-76
2023/04/09 07:39:55;;;;;;;36.42;21.70;;;8.20;99.90;;;;;;5052721;28;20056;-74
2023/04/09 07:42:21;;;;;;;36.40;22.15;;;8.20;99.90;;;;;;5059224;28;20041;-74
2023/04/09 07:44:47;;;;;;;34.38;22.30;;;8.30;99.90;;;;;;5072886;28;20839;-74
2023/04/09 07:47:13;;;;;;;38.40;22.58;;;8.20;99.90;;;;;;5071811;28;20522;-74
2023/04/09 07:49:38;;;;;;;40.15;23.10;;;8.30;99.90;;;;;;5072881;28;20044;-74
2023/04/09 07:52:05;;;;;;;41.80;23.63;;;8.30;99.90;;;;;;5072746;28;20040;-74
2023/04/09 07:54:31;;;;;;;37.50;23.38;;;8.40;99.90;;;;;;5072803;28;20150;-76
2023/04/09 07:56:58;;;;;;;36.08;22.83;;;8.50;99.90;;;;;;5072897;28;20051;-74
2023/04/09 07:59:24;;;;;;;37.03;22.48;;;8.40;99.90;;;;;;5072488;28;20048;-74
2023/04/09 08:01:49;;;;;;;33.95;21.80;;;8.50;99.90;;;;;;5072653;28;20060;-74
2023/04/09 08:04:15;;;;;;;39.28;23.17;;;8.60;99.90;;;;;;5062259;28;20045;-76
2023/04/09 08:06:41;;;;;;;40.03;23.42;;;8.60;99.90;;;;;;5051540;28;20068;-74
2023/04/09 08:09:07;;;;;;;36.70;22.38;;;9.00;99.90;;;;;;5058054;28;20093;-72
2023/04/09 08:11:33;;;;;;;38.60;23.50;;;8.60;99.90;;;;;;5076130;28;20928;-74
2023/04/09 08:14:01;;;;;;;37.15;23.15;;;8.70;99.90;;;;;;5071635;28;20453;-74
2023/04/09 08:16:29;;;;;;;40.70;24.45;;;8.70;99.90;;;;;;5055351;28;20052;-78
2023/04/09 08:18:55;;;;;;;41.83;24.75;;;8.70;99.90;;;;;;5052178;28;20154;-75
2023/04/09 08:21:22;;;;;;;42.20;25.50;;;8.80;99.90;;;;;;5053199;28;20152;-74
2023/04/09 08:23:48;;;;;;;41.25;25.27;;;8.80;99.90;;;;;;5060948;28;20113;-74
2023/04/09 08:26:14;;;;;;;45.03;26.60;;;8.90;99.90;;;;;;5070485;28;20040;-73
2023/04/09 08:28:40;;;;;;;47.47;27.30;;;8.90;99.90;;;;;;5058478;28;20102;-74
2023/04/09 08:31:08;;;;;;;44.10;26.60;;;8.90;99.90;;;;;;5051819;28;20072;-74
2023/04/09 08:33:34;;;;;;;42.83;26.70;;;9.40;99.90;;;;;;5052294;28;20095;-74
2023/04/09 08:36:00;;;;;;;40.88;25.67;;;9.00;99.90;;;;;;5051741;28;20076;-73
2023/04/09 08:38:26;;;;;;;43.70;27.00;;;9.40;99.90;;;;;;5067017;28;20090;-74
2023/04/09 08:40:51;;;;;;;47.47;26.77;;;9.30;99.90;;;;;;5071827;28;20047;-76
2023/04/09 08:43:21;;;;;;;41.13;26.30;;;9.00;99.90;;;;;;5054959;28;20049;-73
2023/04/09 08:45:47;;;;;;;39.92;25.42;;;9.30;99.90;;;;;;5051565;28;20037;-73
2023/04/09 08:48:13;;;;;;;44.33;26.88;;;9.30;99.90;;;;;;5052019;28;20475;-74
2023/04/09 08:50:38;;;;;;;43.80;27.02;;;9.10;99.90;;;;;;5049933;28;20045;-74
2023/04/09 08:53:05;;;;;;;45.17;27.42;;;9.20;99.90;;;;;;5050454;28;20091;-73
2023/04/09 08:55:36;;;;;;;45.20;26.08;;;9.20;99.90;;;;;;5050311;28;20444;-73
2023/04/09 08:58:09;;;;;;;42.88;26.58;;;9.30;99.90;;;;;;5051443;28;20081;-74
2023/04/09 09:00:35;;;;;;;43.45;27.52;;;9.30;99.90;;;;;;5052221;28;20091;-74
2023/04/09 09:03:09;;;;;;;44.35;27.42;;;9.30;99.90;;;;;;5051674;28;20059;-74
2023/04/09 09:05:42;;;;;;;46.17;28.38;;;9.40;99.90;;;;;;5056491;28;20048;-73
2023/04/09 09:08:13;;;;;;;45.03;27.25;;;9.40;99.90;;;;;;5064688;28;20123;-73
2023/04/09 09:10:44;;;;;;;44.50;27.95;;;9.40;99.90;;;;;;5072655;28;20052;-72
2023/04/09 09:13:26;;;;;;;43.03;26.45;;;9.90;99.90;;;;;;5069867;28;20131;-74
2023/04/09 09:16:12;;;;;;;39.72;25.73;;;9.50;99.90;;;;;;5065429;28;20083;-73
2023/04/09 09:18:41;;;;;;;42.85;27.13;;;9.60;99.90;;;;;;5056855;28;20041;-83
2023/04/09 09:21:14;;;;;;;41.58;26.73;;;9.60;99.90;;;;;;5067081;28;20043;-79
2023/04/09 09:23:41;;;;;;;42.83;26.15;;;9.70;99.90;;;;;;5074485;28;20368;-86
2023/04/09 09:26:27;;;;;;;48.45;26.67;;;9.70;99.90;;;;;;5071047;28;20044;-81
2023/04/09 09:28:54;;;;;;;42.92;26.63;;;9.80;99.90;;;;;;5071711;28;20053;-76
2023/04/09 09:31:21;;;;;;;41.65;26.27;;;10.10;99.90;;;;;;5054794;28;20082;-88
2023/04/09 09:33:49;;;;;;;40.35;24.05;;;10.00;99.90;;;;;;5059276;28;20084;-86
2023/04/09 09:36:15;;;;;;;40.10;25.45;;;10.10;99.90;;;;;;5085442;28;20138;-76
2023/04/09 09:38:55;;;;;;;41.42;26.30;;;10.00;99.90;;;;;;5089734;28;20112;-82
2023/04/09 09:41:22;;;;;;;41.53;26.20;;;10.00;99.90;;;;;;5089557;28;20058;-78
2023/04/09 09:43:48;;;;;;;39.47;25.60;;;10.10;99.90;;;;;;5089211;28;20044;-75
2023/04/09 09:46:15;;;;;;;40.58;26.08;;;10.10;99.90;;;;;;5089571;28;20063;-74
2023/04/09 09:48:41;;;;;;;38.33;25.48;;;10.20;99.90;;;;;;5089474;28;20347;-75
2023/04/09 09:51:12;;;;;;;42.10;26.52;;;10.30;99.90;;;;;;5089096;28;20119;-75
2023/04/09 09:53:43;;;;;;;38.50;25.15;;;10.60;99.90;;;;;;5089223;28;20130;-76
2023/04/09 09:56:20;;;;;;;41.33;25.10;;;10.40;99.90;;;;;;5090923;28;20052;-75
2023/04/09 09:59:00;;;;;;;41.28;26.27;;;10.50;99.90;;;;;;5089014;28;20073;-76
2023/04/09 10:01:27;;;;;;;37.92;24.45;;;10.50;99.90;;;;;;5090330;28;20068;-74
2023/04/09 10:03:55;;;;;;;41.83;25.52;;;11.10;99.90;;;;;;5083802;28;20096;-75
2023/04/09 10:06:21;;;;;;;37.42;24.52;;;10.70;99.90;;;;;;5055439;28;20073;-74
2023/04/09 10:08:48;;;;;;;37.55;24.65;;;10.70;99.90;;;;;;5069911;28;20048;-74
2023/04/09 10:11:14;;;;;;;40.95;26.42;;;10.90;99.90;;;;;;5067090;28;20055;-74
2023/04/09 10:13:46;;;;;;;37.88;25.10;;;10.80;99.90;;;;;;5063546;28;20420;-74
2023/04/09 10:16:13;;;;;;;38.15;24.08;;;10.80;99.90;;;;;;5061996;28;20805;-74
2023/04/09 10:18:41;;;;;;;36.67;23.88;;;10.90;99.90;;;;;;5077126;28;20067;-74
2023/04/09 10:21:16;;;;;;;36.95;23.98;;;11.10;99.90;;;;;;5083063;28;20048;-74
2023/04/09 10:23:44;;;;;;;39.35;24.35;;;11.40;99.90;;;;;;5069230;28;20052;-74
2023/04/09 10:26:10;;;;;;;35.83;23.65;;;11.50;99.90;;;;;;5068623;28;20044;-75
2023/04/09 10:28:39;;;;;;;35.83;23.25;;;11.80;99.90;;;;;;5068093;28;20055;-77
2023/04/09 10:31:06;;;;;;;35.30;23.88;;;12.00;99.90;;;;;;5069976;28;20040;-78
2023/04/09 10:33:32;;;;;;;34.50;23.05;;;12.10;99.90;;;;;;5069950;28;20127;-78
2023/04/09 10:36:04;;;;;;;37.05;23.55;;;12.10;99.90;;;;;;5069629;28;20040;-76
2023/04/09 10:38:44;;;;;;;39.38;24.10;;;12.30;99.90;;;;;;5070098;28;20036;-74
2023/04/09 10:41:26;;;;;;;36.28;23.63;;;12.50;99.90;;;;;;5069883;28;20044;-81
2023/04/09 10:43:52;;;;;;;37.47;24.85;;;12.60;99.90;;;;;;5065568;28;20376;-76
2023/04/09 10:46:28;;;;;;;34.40;23.30;;;12.60;99.90;;;;;;5058097;28;20041;-78
2023/04/09 10:49:18;;;;;;;34.58;23.65;;;12.70;99.90;;;;;;5051108;28;20076;-78
2023/04/09 10:51:53;;;;;;;36.88;23.13;;;13.00;99.90;;;;;;5058188;28;20051;-76
2023/04/09 10:54:34;;;;;;;32.00;21.95;;;13.10;99.90;;;;;;5070041;28;20051;-74
2023/04/09 10:57:06;;;;;;;31.27;21.35;;;13.30;99.90;;;;;;5069596;28;20499;-75
2023/04/09 10:59:32;;;;;;;34.78;23.00;;;13.30;99.90;;;;;;5069347;28;20519;-75
2023/04/09 11:01:58;;;;;;;33.72;21.98;;;13.30;99.90;;;;;;5068211;28;20061;-75
2023/04/09 11:04:35;;;;;;;31.67;21.33;;;13.60;99.90;;;;;;5068524;28;20496;-74
2023/04/09 11:07:05;;;;;;;29.48;21.52;;;13.80;99.90;;;;;;5057949;28;20077;-74
2023/04/09 11:09:35;;;;;;;28.85;20.88;;;13.60;99.90;;;;;;5049761;28;20124;-75
2023/04/09 11:12:02;;;;;;;31.10;22.30;;;13.90;99.90;;;;;;5049459;28;20314;-75
2023/04/09 11:14:28;;;;;;;32.55;22.05;;;14.00;99.90;;;;;;5048424;28;20049;-76
2023/04/09 11:16:53;;;;;;;31.95;20.80;;;14.00;99.90;;;;;;5047881;28;20059;-75
2023/04/09 11:19:22;;;;;;;30.00;21.35;;;14.10;99.90;;;;;;5059769;28;20098;-75
2023/04/09 11:21:48;;;;;;;28.60;20.70;;;14.30;99.90;;;;;;5047759;28;20052;-75
2023/04/09 11:24:16;;;;;;;32.65;22.27;;;14.40;99.90;;;;;;5049297;28;20059;-75
2023/04/09 11:26:42;;;;;;;29.13;21.00;;;14.60;99.90;;;;;;5050958;28;20086;-75
2023/04/09 11:29:08;;;;;;;29.60;20.25;;;14.60;99.90;;;;;;5057249;28;20072;-79
2023/04/09 11:31:34;;;;;;;31.23;21.08;;;14.60;99.90;;;;;;5069389;28;20554;-75
2023/04/09 11:34:01;;;;;;;27.63;19.20;;;14.60;99.90;;;;;;5063147;28;20059;-75
2023/04/09 11:36:26;;;;;;;28.88;19.23;;;14.60;99.90;;;;;;5049173;28;20041;-75
2023/04/09 11:38:54;;;;;;;26.38;18.75;;;14.90;99.90;;;;;;5049271;28;20403;-76
2023/04/09 11:41:46;;;;;;;29.27;19.27;;;15.10;99.90;;;;;;5051318;28;20074;-75
2023/04/09 11:44:12;;;;;;;26.83;19.00;;;15.40;99.90;;;;;;5049965;28;20146;-75
2023/04/09 11:46:39;;;;;;;26.50;18.02;;;15.60;99.90;;;;;;5051459;28;20123;-74
2023/04/09 11:49:05;;;;;;;27.02;19.40;;;15.60;99.90;;;;;;5055324;28;20125;-74
2023/04/09 11:51:31;;;;;;;27.17;17.52;;;15.80;99.90;;;;;;5073031;28;20048;-75
2023/04/09 11:54:05;;;;;;;25.48;18.33;;;15.40;99.90;;;;;;5072423;28;20539;-74
2023/04/09 11:56:31;;;;;;;27.60;18.70;;;15.30;99.90;;;;;;5071224;28;20492;-74
2023/04/09 11:58:58;;;;;;;26.70;18.55;;;15.60;99.90;;;;;;5052790;28;20049;-75
2023/04/09 12:01:24;;;;;;;26.38;18.23;;;15.60;99.90;;;;;;5052370;28;20144;-74
2023/04/09 12:03:54;;;;;;;31.05;19.45;;;15.70;99.90;;;;;;5051357;28;20072;-75
2023/04/09 12:06:24;;;;;;;26.30;17.88;;;15.70;99.90;;;;;;5052731;28;20395;-76
2023/04/09 12:08:56;;;;;;;24.17;17.30;;;16.00;99.90;;;;;;5071344;28;20041;-74
2023/04/09 12:11:30;;;;;;;25.20;16.70;;;16.30;99.90;;;;;;5071216;28;20041;-75
2023/04/09 12:14:01;;;;;;;24.27;17.25;;;16.30;99.90;;;;;;5051800;28;20143;-77
2023/04/09 12:16:34;;;;;;;23.08;15.85;;;16.50;99.90;;;;;;5052667;28;20494;-76
2023/04/09 12:19:01;;;;;;;23.35;15.27;;;16.70;99.90;;;;;;5056354;28;20086;-75
2023/04/09 12:21:51;;;;;;;21.42;15.45;;;16.90;99.90;;;;;;5066112;28;20130;-82
2023/04/09 12:24:19;;;;;;;24.77;16.55;;;16.90;99.90;;;;;;5070537;28;20124;-80
2023/04/09 12:26:46;;;;;;;26.08;16.65;;;16.90;99.90;;;;;;5072503;28;20074;-85
2023/04/09 12:29:16;;;;;;;27.08;17.95;;;17.00;99.90;;;;;;5072298;28;20044;-84
2023/04/09 12:31:42;;;;;;;24.88;17.23;;;16.90;99.90;;;;;;5070940;28;20064;-79
2023/04/09 12:34:08;;;;;;;21.17;15.82;;;16.90;99.90;;;;;;5070879;28;20056;-86
2023/04/09 12:36:34;;;;;;;22.15;16.75;;;17.20;99.90;;;;;;5070652;28;20048;-84